Terminal Aerodrome Forecast
Issued by NWS Central Illinois

Home | Current Version | Previous Version | Text Only | Print | Product List | Glossary On
Versions: 1 2 3 4 5 6 7 8 9 10 11 12 13 14 15 16 17 18 19 20 21 22 23 24 25 26
233
FTUS43 KILX 271729
TAFPIA
TAF
KPIA 271729Z 2718/2818 07004KT 4SM -SHRA BR OVC006
     FM272100 03005KT P6SM VCSH OVC015
     FM280500 02007KT P6SM OVC008
     FM281400 03009KT P6SM BKN012=

USA.gov is the U.S. government's official web portal to all federal, state and local government web resources and services.